Torre De Belem — CSIO — position and weather

sailwx.info

Track history (hours):
 
Tides and Currents Weather Stations Pressure Air Temp Water Temp Dewpoint Dewpoint Depression Visibility Wind Speed Wind Dir Waves Ship Positions

Torre De Belem

Last reported at 2017-Mar-29 22:33 UTC. Time now 2017-Mar-30 01:02 UTC.
Position N 38°42' W 009°25'.

Length 14 m.

MMSI: 263671850.

Date/timePositionNaut miles runAvg speedWind from/ knotsBaromVisibWave heightAir tempDewpointWater temp
2017-Mar-29 22:33N 38°42' W 009°25'8 8.2
2017-Mar-29 21:33N 38°42' W 009°14'0 0.0
2017-Mar-29 15:14N 38°42' W 009°14'0 0.1
2017-Mar-29 14:33N 38°42' W 009°14'0 0.0
2017-Mar-29 13:33N 38°42' W 009°14'0 0.0
2017-Mar-29 12:33N 38°42' W 009°14'0 0.0
2017-Mar-29 11:33N 38°42' W 009°14'7 6.9
2017-Mar-29 10:33N 38°40' W 009°23'8 8.3
2017-Mar-29 09:33N 38°41' W 009°12'2 1.5
2017-Mar-29 08:33N 38°42' W 009°14'0 0.0
2017-Mar-29 07:33N 38°42' W 009°14'0 0.0
2017-Mar-29 06:33N 38°42' W 009°14'0 0.0
2017-Mar-29 05:33N 38°42' W 009°14'0 0.0
2017-Mar-29 04:33N 38°42' W 009°14'0 0.0
2017-Mar-29 03:33N 38°42' W 009°14'0 0.0
2017-Mar-29 02:33N 38°42' W 009°14'1 1.2
2017-Mar-29 01:33N 38°41' W 009°13'1 1.2
2017-Mar-29 00:33N 38°42' W 009°14'0 0.0
2017-Mar-28 23:34N 38°42' W 009°14'9 8.6
2017-Mar-28 22:34N 38°37' W 009°23'5 0.5
2017-Mar-28 13:05N 38°42' W 009°25'0 0.0
2017-Mar-28 07:24N 38°42' W 009°25'0 0.2
2017-Mar-28 06:33N 38°42' W 009°25'0 0.0
2017-Mar-28 05:33N 38°42' W 009°25'2 0.4
2017-Mar-27 23:33N 38°40' W 009°27'2 0.0
2017-Mar-25 22:12N 38°42' W 009°25'3 3.9
2017-Mar-25 21:34N 38°39' W 009°23'3 0.2
2017-Mar-25 05:05N 38°42' W 009°25'0 0.0
2017-Mar-24 23:28N 38°42' W 009°25'3 0.3
2017-Mar-24 14:33N 38°39' W 009°24'3 0.6
2017-Mar-24 10:31N 38°42' W 009°25'0 0.0
2017-Mar-23 18:07N 38°42' W 009°25'3 5.6
2017-Mar-23 17:34N 38°39' W 009°24'1 1.2
2017-Mar-23 16:33N 38°39' W 009°25'2 0.2
2017-Mar-23 06:28N 38°42' W 009°25'0 0.0
2017-Mar-22 16:10N 38°42' W 009°25'0 0.6
2017-Mar-22 15:33N 38°41' W 009°25'0 0.1
2017-Mar-22 12:27N 38°42' W 009°25'0 0.0
2017-Mar-22 11:33N 38°42' W 009°25'0 0.0
2017-Mar-22 04:07N 38°42' W 009°25'5 8.0
2017-Mar-22 03:33N 38°38' W 009°21'1 1.1
2017-Mar-22 02:33N 38°38' W 009°23'1 0.3
2017-Mar-21 21:33N 38°38' W 009°25'4 3.6
2017-Mar-21 20:33N 38°42' W 009°25'0 0.0
2017-Mar-21 19:33N 38°42' W 009°25'1 1.1
2017-Mar-21 18:33N 38°40' W 009°25'1 0.1
2017-Mar-21 11:03N 38°42' W 009°25'0 0.2
2017-Mar-21 10:33N 38°42' W 009°25'1 0.2
2017-Mar-21 06:33N 38°41' W 009°25'1 0.1
2017-Mar-20 18:27N 38°42' W 009°25'  
Track history (hours):
 
Tides and Currents Weather Stations Pressure Air Temp Water Temp Dewpoint Dewpoint Depression Visibility Wind Speed Wind Dir Waves Ship Positions

Torre De Belem

Last reported at 2017-Mar-29 22:33 UTC. Time now 2017-Mar-30 01:02 UTC.
Position N 38°42' W 009°25'.

Length 14 m.

MMSI: 263671850.

Date/timePositionNaut miles runAvg speedWind from/ knotsBaromVisibWave heightAir tempDewpointWater temp
2017-Mar-29 22:33N 38°42' W 009°25'8 8.2
2017-Mar-29 21:33N 38°42' W 009°14'0 0.0
2017-Mar-29 15:14N 38°42' W 009°14'0 0.1
2017-Mar-29 14:33N 38°42' W 009°14'0 0.0
2017-Mar-29 13:33N 38°42' W 009°14'0 0.0
2017-Mar-29 12:33N 38°42' W 009°14'0 0.0
2017-Mar-29 11:33N 38°42' W 009°14'7 6.9
2017-Mar-29 10:33N 38°40' W 009°23'8 8.3
2017-Mar-29 09:33N 38°41' W 009°12'2 1.5
2017-Mar-29 08:33N 38°42' W 009°14'0 0.0
2017-Mar-29 07:33N 38°42' W 009°14'0 0.0
2017-Mar-29 06:33N 38°42' W 009°14'0 0.0
2017-Mar-29 05:33N 38°42' W 009°14'0 0.0
2017-Mar-29 04:33N 38°42' W 009°14'0 0.0
2017-Mar-29 03:33N 38°42' W 009°14'0 0.0
2017-Mar-29 02:33N 38°42' W 009°14'1 1.2
2017-Mar-29 01:33N 38°41' W 009°13'1 1.2
2017-Mar-29 00:33N 38°42' W 009°14'0 0.0
2017-Mar-28 23:34N 38°42' W 009°14'9 8.6
2017-Mar-28 22:34N 38°37' W 009°23'5 0.5
2017-Mar-28 13:05N 38°42' W 009°25'0 0.0
2017-Mar-28 07:24N 38°42' W 009°25'0 0.2
2017-Mar-28 06:33N 38°42' W 009°25'0 0.0
2017-Mar-28 05:33N 38°42' W 009°25'2 0.4
2017-Mar-27 23:33N 38°40' W 009°27'2 0.0
2017-Mar-25 22:12N 38°42' W 009°25'3 3.9
2017-Mar-25 21:34N 38°39' W 009°23'3 0.2
2017-Mar-25 05:05N 38°42' W 009°25'0 0.0
2017-Mar-24 23:28N 38°42' W 009°25'3 0.3
2017-Mar-24 14:33N 38°39' W 009°24'3 0.6
2017-Mar-24 10:31N 38°42' W 009°25'0 0.0
2017-Mar-23 18:07N 38°42' W 009°25'3 5.6
2017-Mar-23 17:34N 38°39' W 009°24'1 1.2
2017-Mar-23 16:33N 38°39' W 009°25'2 0.2
2017-Mar-23 06:28N 38°42' W 009°25'0 0.0
2017-Mar-22 16:10N 38°42' W 009°25'0 0.6
2017-Mar-22 15:33N 38°41' W 009°25'0 0.1
2017-Mar-22 12:27N 38°42' W 009°25'0 0.0
2017-Mar-22 11:33N 38°42' W 009°25'0 0.0
2017-Mar-22 04:07N 38°42' W 009°25'5 8.0
2017-Mar-22 03:33N 38°38' W 009°21'1 1.1
2017-Mar-22 02:33N 38°38' W 009°23'1 0.3
2017-Mar-21 21:33N 38°38' W 009°25'4 3.6
2017-Mar-21 20:33N 38°42' W 009°25'0 0.0
2017-Mar-21 19:33N 38°42' W 009°25'1 1.1
2017-Mar-21 18:33N 38°40' W 009°25'1 0.1
2017-Mar-21 11:03N 38°42' W 009°25'0 0.2
2017-Mar-21 10:33N 38°42' W 009°25'1 0.2
2017-Mar-21 06:33N 38°41' W 009°25'1 0.1
2017-Mar-20 18:27N 38°42' W 009°25'  

Dump ship's entire track history